KLFK/LFK METAR and TAF weather

Enter ICAO airport designator
Station Type Date Time Source
KLFK METAR 2021/05/15 01:53 UTC NOAA

KLFK 150153Z AUTO 06003KT 10SM CLR 19/14 A3014 RMK AO2 SLP202 T01940139


Station Type Date Time Source
KLFK Decoded METAR 2021/05/15 01:53 UTC NOAA

LUFKIN ANGELINA COUNTY AIRPORT , TX, United States (KLFK) 31-14N 94-45W 88M
May 14, 2021 - 09:53 PM EDT / 2021.05.15 0153 UTC
Wind: from the ENE (060 degrees) at 3 MPH (3 KT):0
Visibility: 10 mile(s):0
Sky conditions: clear
Temperature: 66.9 F (19.4 C)
Dew Point: 57.0 F (13.9 C)
Relative Humidity: 70%
Pressure (altimeter): 30.14 in. Hg (1020 hPa)
ob: KLFK 150153Z AUTO 06003KT 10SM CLR 19/14 A3014 RMK AO2 SLP202 T01940139
cycle: 2

Station Type Date Time Source
KLFK TAF 2021/05/14 18:36 UTC NOAA

TAF KLFK 141733Z 1418/1518 10006KT P6SM SCT050
FM150100 10003KT P6SM FEW250
FM151500 15008KT P6SM SCT050 SCT250

Example: see airport list